Time;durP1;ratioP1;P1;durP2;ratioP2;P2;SDS_P1;SDS_P2;PMS_P1;PMS_P2;Temp;Humidity;BMP_temperature;BMP_pressure;BME280_temperature;BME280_humidity;BME280_pressure;Samples;Min_cycle;Max_cycle;Signal;HPM_P1;HPM_P2
2021/05/18 05:00:38;;;;;;;45.40;27.53;;;10.40;99.90;;;;;;4212035;28;20533;-79
2021/05/18 05:07:25;;;;;;;19.00;7.30;;;10.60;99.90;;;;;;4212088;28;20201;-76
2021/05/18 05:09:28;;;;;;;20.73;7.70;;;10.80;99.90;;;;;;4210778;28;20174;-76
2021/05/18 05:14:15;;;;;;;25.30;9.20;;;11.20;99.90;;;;;;4211932;28;20246;-75
2021/05/18 05:16:16;;;;;;;19.95;6.22;;;11.40;99.90;;;;;;4210626;28;20708;-77
2021/05/18 05:18:17;;;;;;;21.75;8.13;;;11.60;99.90;;;;;;4210692;28;20174;-77
2021/05/18 05:20:18;;;;;;;22.08;8.38;;;11.80;99.90;;;;;;4212179;28;20184;-76
2021/05/18 05:22:18;;;;;;;18.50;5.13;;;12.00;99.90;;;;;;4211759;28;20174;-77
2021/05/18 05:24:19;;;;;;;12.65;4.28;;;12.20;99.90;;;;;;4193933;28;20173;-76
2021/05/18 05:26:20;;;;;;;18.15;5.75;;;12.20;99.90;;;;;;4210454;28;20224;-77
2021/05/18 05:28:21;;;;;;;18.75;5.20;;;12.20;99.90;;;;;;4210487;28;20208;-76
2021/05/18 05:30:22;;;;;;;16.88;4.88;;;12.30;99.90;;;;;;4193597;28;20179;-77
2021/05/18 05:32:23;;;;;;;18.38;4.82;;;12.60;99.90;;;;;;4193473;28;20181;-76
2021/05/18 05:34:23;;;;;;;18.10;6.85;;;12.80;99.90;;;;;;4210446;28;20182;-77
2021/05/18 05:36:24;;;;;;;13.63;5.05;;;12.90;99.90;;;;;;4193623;28;20171;-76
2021/05/18 05:38:26;;;;;;;18.35;5.80;;;12.70;99.90;;;;;;4210311;28;20163;-75
2021/05/18 05:40:26;;;;;;;15.88;6.78;;;12.90;99.90;;;;;;4211583;28;20177;-76
2021/05/18 05:42:28;;;;;;;15.48;4.38;;;12.90;99.90;;;;;;4193765;28;20178;-77
2021/05/18 05:44:29;;;;;;;10.55;4.18;;;12.90;99.90;;;;;;4193427;28;20626;-77
2021/05/18 05:46:31;;;;;;;11.05;3.95;;;12.80;99.90;;;;;;4193676;28;20182;-77
2021/05/18 05:48:31;;;;;;;14.40;3.60;;;12.90;99.90;;;;;;4210256;28;20173;-78
2021/05/18 05:50:32;;;;;;;10.13;3.70;;;13.00;99.90;;;;;;4210157;28;20174;-77
2021/05/18 05:52:34;;;;;;;14.20;3.88;;;13.10;99.90;;;;;;4193292;28;20171;-77
2021/05/18 05:54:35;;;;;;;9.93;3.25;;;13.10;99.90;;;;;;4210076;28;20177;-77
2021/05/18 05:56:36;;;;;;;11.30;3.60;;;13.30;99.90;;;;;;4211452;28;20175;-76
2021/05/18 05:58:36;;;;;;;17.85;3.92;;;13.40;99.90;;;;;;4210158;28;20174;-78
2021/05/18 06:00:38;;;;;;;14.60;3.38;;;13.30;99.90;;;;;;4209913;28;20177;-79
2021/05/18 06:02:39;;;;;;;12.77;3.70;;;13.30;99.90;;;;;;4210068;28;20568;-78
2021/05/18 06:04:40;;;;;;;15.80;3.67;;;13.40;99.90;;;;;;4192957;28;20261;-77
2021/05/18 06:06:41;;;;;;;13.18;3.63;;;13.40;99.90;;;;;;4193223;28;20549;-78
2021/05/18 06:08:44;;;;;;;11.93;4.20;;;13.50;99.90;;;;;;4210219;28;20168;-77
2021/05/18 06:10:47;;;;;;;12.35;4.13;;;13.50;99.90;;;;;;4204158;28;20181;-76
2021/05/18 06:43:10;;;;;;;15.63;4.30;;;14.70;99.90;;;;;;4199475;28;20175;-77
2021/05/18 06:47:34;;;;;;;40.72;21.42;;;14.90;99.90;;;;;;4197914;28;20254;-79
2021/05/18 06:49:38;;;;;;;12.32;4.60;;;14.80;99.90;;;;;;4197759;28;20681;-80
2021/05/18 06:51:39;;;;;;;29.40;11.60;;;14.70;99.90;;;;;;4199343;28;20507;-78
2021/05/18 06:53:40;;;;;;;74.82;37.55;;;14.40;99.90;;;;;;4181307;28;20197;-79
2021/05/18 06:55:41;;;;;;;86.55;56.97;;;14.00;99.90;;;;;;4198099;28;20522;-78
2021/05/18 06:57:46;;;;;;;21.55;8.88;;;13.90;99.90;;;;;;4197980;28;20606;-77
2021/05/18 07:02:06;;;;;;;14.70;4.15;;;14.10;99.90;;;;;;4199011;28;20585;-78
2021/05/18 07:04:09;;;;;;;15.30;5.57;;;14.20;99.90;;;;;;4197817;28;20177;-79
2021/05/18 07:08:55;;;;;;;17.42;4.30;;;14.10;99.90;;;;;;4197748;28;20177;-78
2021/05/18 07:10:50;;;;;;;16.73;5.72;;;14.30;99.90;;;;;;4199111;28;20173;-78
2021/05/18 07:12:50;;;;;;;14.18;6.53;;;14.40;99.90;;;;;;4181446;28;20606;-78
2021/05/18 07:14:51;;;;;;;11.52;6.30;;;14.40;99.90;;;;;;4197859;28;20175;-77
2021/05/18 07:16:52;;;;;;;14.85;5.70;;;14.50;99.90;;;;;;4197803;28;20174;-79
2021/05/18 07:18:53;;;;;;;15.65;6.20;;;14.70;99.90;;;;;;4199366;28;20233;-78
2021/05/18 07:20:53;;;;;;;12.60;6.70;;;14.80;99.90;;;;;;4181074;28;20270;-78
2021/05/18 07:22:56;;;;;;;14.52;6.88;;;14.80;99.90;;;;;;4196474;28;20167;-77
2021/05/18 07:24:57;;;;;;;12.10;5.78;;;15.40;99.90;;;;;;4180917;28;20198;-78
2021/05/18 07:26:59;;;;;;;11.10;6.00;;;15.80;99.90;;;;;;4197364;28;20622;-78
2021/05/18 07:28:59;;;;;;;11.63;5.65;;;16.10;99.90;;;;;;4180788;28;20176;-78
2021/05/18 07:31:01;;;;;;;8.80;5.13;;;16.70;99.90;;;;;;4197458;28;20745;-77
2021/05/18 07:33:03;;;;;;;12.85;5.32;;;17.00;99.90;;;;;;4197581;28;20618;-77
2021/05/18 07:35:05;;;;;;;9.32;4.85;;;16.70;99.90;;;;;;4198607;28;20163;-76
2021/05/18 07:37:06;;;;;;;9.65;4.50;;;16.30;99.90;;;;;;4198484;28;20167;-77
2021/05/18 07:39:07;;;;;;;8.05;4.18;;;16.90;99.90;;;;;;4197297;28;20701;-77
2021/05/18 07:41:09;;;;;;;8.10;4.03;;;17.70;99.90;;;;;;4197261;28;20179;-79
2021/05/18 07:43:13;;;;;;;10.40;4.32;;;17.70;99.90;;;;;;4197214;28;20585;-78
2021/05/18 07:45:14;;;;;;;7.53;3.85;;;17.70;99.90;;;;;;4197207;28;20174;-79
2021/05/18 07:47:16;;;;;;;6.97;3.65;;;18.50;99.90;;;;;;4180821;28;20179;-77
2021/05/18 07:49:25;;;;;;;9.30;3.80;;;18.50;99.90;;;;;;4197060;28;20724;-77
2021/05/18 07:51:37;;;;;;;6.13;3.45;;;19.00;99.90;;;;;;4197177;28;20241;-77
2021/05/18 08:00:57;;;;;;;8.23;3.25;;;20.20;99.90;;;;;;4198278;28;20274;-78
2021/05/18 08:05:18;;;;;;;8.25;2.70;;;20.60;99.90;;;;;;4198142;28;20174;-78
2021/05/18 08:07:19;;;;;;;5.30;2.33;;;19.70;99.90;;;;;;4180513;28;20167;-75
2021/05/18 08:09:22;;;;;;;6.97;2.67;;;18.70;99.90;;;;;;4180331;28;20226;-77
2021/05/18 08:11:25;;;;;;;6.40;2.40;;;18.60;99.90;;;;;;4198066;28;20170;-76
2021/05/18 08:13:26;;;;;;;7.60;2.70;;;18.50;99.90;;;;;;4196991;28;20584;-78
2021/05/18 08:15:36;;;;;;;9.10;2.00;;;18.80;99.90;;;;;;4196735;28;20254;-77
2021/05/18 10:18:19;;;;;;;3.38;1.60;;;18.60;99.90;;;;;;4197762;28;20683;-75
2021/05/18 10:38:04;;;;;;;4.95;1.50;;;19.00;99.90;;;;;;4199535;28;20225;-77
2021/05/18 10:40:23;;;;;;;3.17;1.58;;;18.30;99.90;;;;;;4199859;28;20713;-76
2021/05/18 10:42:24;;;;;;;6.03;1.90;;;18.30;99.90;;;;;;4198515;28;20308;-76
2021/05/18 10:44:25;;;;;;;4.70;1.63;;;18.20;99.90;;;;;;4199360;28;20545;-76
2021/05/18 10:46:29;;;;;;;6.13;1.60;;;18.40;99.90;;;;;;4181382;28;20195;-78
2021/05/18 10:48:33;;;;;;;3.13;1.50;;;18.50;99.90;;;;;;4214877;28;20235;-78
2021/05/18 10:50:41;;;;;;;5.13;1.48;;;18.80;99.90;;;;;;4181581;28;20232;-78
2021/05/18 10:52:43;;;;;;;3.75;1.50;;;19.00;99.90;;;;;;4198024;28;20174;-78
2021/05/18 10:54:44;;;;;;;4.32;1.25;;;18.70;99.90;;;;;;4181420;28;20238;-76
2021/05/18 10:56:53;;;;;;;6.15;1.63;;;18.90;99.90;;;;;;4198076;28;20609;-75
2021/05/18 10:58:54;;;;;;;3.92;1.30;;;19.10;99.90;;;;;;4181293;28;20222;-74
2021/05/18 11:00:55;;;;;;;2.15;0.90;;;18.80;99.90;;;;;;4181436;28;20172;-75
2021/05/18 11:02:55;;;;;;;2.70;1.13;;;18.40;99.90;;;;;;4198099;28;20663;-74
2021/05/18 11:05:03;;;;;;;2.80;1.60;;;18.20;99.90;;;;;;4199150;28;20168;-75
2021/05/18 11:07:05;;;;;;;4.80;1.88;;;18.10;99.90;;;;;;4199246;28;20633;-76
2021/05/18 11:09:06;;;;;;;4.13;1.92;;;18.40;99.90;;;;;;4197930;28;20290;-77
2021/05/18 11:11:25;;;;;;;5.03;1.83;;;18.40;99.90;;;;;;4199106;28;20182;-77
2021/05/18 11:13:27;;;;;;;6.40;1.63;;;18.90;99.90;;;;;;4181269;28;20267;-77
2021/05/18 11:15:30;;;;;;;5.47;1.60;;;19.20;99.90;;;;;;4181140;28;20654;-75
2021/05/18 11:17:35;;;;;;;2.75;1.45;;;19.50;99.90;;;;;;4197886;28;20202;-75
2021/05/18 11:19:48;;;;;;;2.45;1.30;;;19.10;99.90;;;;;;4197675;28;20285;-78
2021/05/18 11:21:58;;;;;;;5.20;1.48;;;19.30;99.90;;;;;;4197789;28;20665;-75
2021/05/18 11:24:12;;;;;;;4.10;1.25;;;19.00;99.90;;;;;;4198851;28;20241;-76
2021/05/18 11:26:13;;;;;;;1.83;1.10;;;18.70;99.90;;;;;;4197474;28;20175;-76
2021/05/18 11:28:27;;;;;;;4.90;1.35;;;18.80;99.90;;;;;;4181297;28;20214;-75
2021/05/18 11:30:28;;;;;;;3.90;1.25;;;19.10;99.90;;;;;;4197566;28;20238;-75
2021/05/18 11:32:28;;;;;;;7.35;1.20;;;19.30;99.90;;;;;;4198599;28;20220;-77
2021/05/18 11:34:29;;;;;;;1.40;1.10;;;19.20;99.90;;;;;;4197589;28;20654;-77
2021/05/18 11:36:40;;;;;;;2.33;1.20;;;19.10;99.90;;;;;;4198736;28;20511;-76
2021/05/18 11:38:47;;;;;;;3.17;1.20;;;19.00;99.90;;;;;;4180744;28;20179;-78
2021/05/18 11:40:53;;;;;;;3.38;1.08;;;18.50;99.90;;;;;;4197363;28;20413;-77
2021/05/18 11:42:54;;;;;;;6.93;1.73;;;18.40;99.90;;;;;;4197109;28;20243;-77
2021/05/18 11:45:14;;;;;;;1.73;0.93;;;18.80;99.90;;;;;;4197256;28;20263;-76
2021/05/18 11:47:14;;;;;;;3.88;1.13;;;19.30;99.90;;;;;;4198448;28;20159;-74
2021/05/18 11:49:18;;;;;;;6.40;1.17;;;19.40;99.90;;;;;;4197082;28;20574;-73
2021/05/18 11:51:19;;;;;;;2.08;1.00;;;18.80;99.90;;;;;;4198486;28;20659;-77
2021/05/18 11:53:40;;;;;;;2.65;1.20;;;18.00;99.90;;;;;;4198593;28;20175;-74
2021/05/18 11:55:40;;;;;;;4.50;1.10;;;18.10;99.90;;;;;;4198317;28;20167;-76
2021/05/18 11:57:41;;;;;;;2.45;1.35;;;18.00;99.90;;;;;;4197204;28;20250;-77
2021/05/18 11:59:42;;;;;;;2.97;1.10;;;18.20;99.90;;;;;;4197030;28;20193;-76
2021/05/18 12:01:43;;;;;;;3.90;1.35;;;18.80;99.90;;;;;;4197031;28;20171;-77
2021/05/18 12:03:44;;;;;;;6.13;1.30;;;18.60;99.90;;;;;;4198260;28;20653;-75
2021/05/18 12:05:53;;;;;;;6.55;1.10;;;19.00;99.90;;;;;;4180464;28;20286;-76
2021/05/18 12:07:54;;;;;;;1.88;0.85;;;18.30;99.90;;;;;;4196766;28;20182;-75
2021/05/18 12:09:55;;;;;;;2.33;0.90;;;18.10;99.90;;;;;;4196550;28;20214;-76
2021/05/18 12:12:00;;;;;;;3.55;1.10;;;17.80;99.90;;;;;;4180215;28;20185;-76
2021/05/18 12:14:09;;;;;;;2.47;1.20;;;17.70;99.90;;;;;;4196684;28;20248;-77
2021/05/18 12:16:12;;;;;;;3.28;1.00;;;18.00;99.90;;;;;;4180200;28;20221;-76
2021/05/18 12:18:13;;;;;;;3.28;0.80;;;18.20;99.90;;;;;;4196715;28;20707;-77
2021/05/18 12:20:15;;;;;;;6.20;0.98;;;18.40;99.90;;;;;;4196651;28;20179;-78
2021/05/18 12:22:16;;;;;;;3.13;1.00;;;18.30;99.90;;;;;;4196778;28;20178;-76
2021/05/18 12:24:21;;;;;;;2.65;0.90;;;18.30;99.90;;;;;;4196850;28;20221;-75
2021/05/18 12:26:21;;;;;;;2.40;0.90;;;18.40;99.90;;;;;;4180071;28;20167;-75
2021/05/18 12:28:22;;;;;;;3.17;0.88;;;18.70;99.90;;;;;;4197888;28;20583;-77
2021/05/18 12:30:43;;;;;;;2.97;0.85;;;18.20;99.90;;;;;;4180268;28;20207;-77
2021/05/18 12:32:48;;;;;;;2.05;1.00;;;18.30;99.90;;;;;;4197838;28;20171;-76
2021/05/18 12:35:01;;;;;;;2.05;0.90;;;17.90;99.90;;;;;;4196769;28;20206;-76
2021/05/18 12:37:02;;;;;;;7.88;1.02;;;18.20;99.90;;;;;;4179952;28;20167;-76
2021/05/18 12:39:12;;;;;;;2.90;1.05;;;18.30;99.90;;;;;;4196593;28;20662;-77
2021/05/18 12:41:13;;;;;;;4.15;0.98;;;18.50;99.90;;;;;;4197654;28;20162;-75
2021/05/18 12:43:18;;;;;;;3.80;0.80;;;18.50;99.90;;;;;;4179592;28;20665;-74
2021/05/18 12:45:24;;;;;;;4.47;1.25;;;18.30;99.90;;;;;;4196627;28;20178;-79
2021/05/18 12:47:35;;;;;;;2.08;0.95;;;18.00;99.90;;;;;;4196317;28;20214;-76
2021/05/18 12:49:38;;;;;;;2.13;1.00;;;17.70;99.90;;;;;;4196391;28;20210;-75
2021/05/18 12:51:39;;;;;;;3.00;1.10;;;17.60;99.90;;;;;;4198002;28;20254;-77
2021/05/18 12:53:40;;;;;;;3.08;1.00;;;17.50;99.90;;;;;;4196552;28;20193;-75
2021/05/18 12:55:43;;;;;;;4.93;0.93;;;17.50;99.90;;;;;;4196465;28;20167;-78
2021/05/18 12:57:56;;;;;;;3.67;1.30;;;17.40;99.90;;;;;;4196431;28;20249;-77
2021/05/18 13:00:14;;;;;;;1.50;1.00;;;17.60;99.90;;;;;;4197536;28;20236;-76
2021/05/18 13:02:31;;;;;;;4.65;1.00;;;17.90;99.90;;;;;;4196163;28;20169;-76
2021/05/18 13:04:37;;;;;;;3.78;0.85;;;18.20;99.90;;;;;;4196113;28;20202;-75
2021/05/18 13:06:45;;;;;;;2.92;0.90;;;18.40;99.90;;;;;;4197620;28;20308;-76
2021/05/18 13:08:46;;;;;;;1.63;0.70;;;18.00;99.90;;;;;;4179515;28;20212;-78
2021/05/18 13:13:04;;;;;;;2.47;0.82;;;18.20;99.90;;;;;;4197422;28;20552;-77
2021/05/18 13:15:09;;;;;;;4.10;0.80;;;18.60;99.90;;;;;;4179669;28;20705;-77
2021/05/18 13:17:11;;;;;;;2.88;1.33;;;18.60;99.90;;;;;;4196040;28;20192;-76
2021/05/18 13:19:12;;;;;;;3.92;0.68;;;18.80;99.90;;;;;;4196203;28;20178;-76
2021/05/18 13:21:22;;;;;;;4.65;0.65;;;18.80;99.90;;;;;;4199029;28;20246;-77
2021/05/18 13:23:32;;;;;;;3.15;0.90;;;18.40;99.90;;;;;;4199424;28;20185;-74
2021/05/18 13:27:58;;;;;;;2.05;1.02;;;18.10;99.90;;;;;;4199571;28;20166;-77
2021/05/18 13:29:59;;;;;;;2.03;0.75;;;18.80;99.90;;;;;;4200599;28;20661;-76
2021/05/18 13:32:00;;;;;;;4.65;0.70;;;18.50;99.90;;;;;;4199449;28;20182;-77
2021/05/18 13:34:00;;;;;;;4.25;0.70;;;18.30;99.90;;;;;;4216238;28;20174;-77
2021/05/18 13:36:02;;;;;;;2.22;0.82;;;18.50;99.90;;;;;;4183101;28;20176;-76
2021/05/18 13:38:02;;;;;;;2.65;0.75;;;18.20;99.90;;;;;;4182670;28;20210;-77
2021/05/18 13:40:04;;;;;;;2.63;0.70;;;18.10;99.90;;;;;;4199145;28;20171;-76
2021/05/18 13:42:05;;;;;;;4.50;0.80;;;18.40;99.90;;;;;;4182428;28;20172;-77
2021/05/18 13:44:07;;;;;;;5.63;1.20;;;18.00;99.90;;;;;;4198956;28;20202;-78
2021/05/18 13:46:08;;;;;;;3.72;0.75;;;18.00;99.90;;;;;;4199187;28;20162;-77
2021/05/18 13:48:09;;;;;;;3.40;0.70;;;17.90;99.90;;;;;;4182553;28;20271;-77
2021/05/18 13:50:10;;;;;;;4.30;0.73;;;17.90;99.90;;;;;;4198852;28;20206;-74
2021/05/18 13:52:13;;;;;;;3.53;0.80;;;18.00;99.90;;;;;;4182279;28;20565;-78
2021/05/18 13:54:14;;;;;;;3.42;0.90;;;18.40;99.90;;;;;;4198776;28;20182;-77
2021/05/18 13:56:15;;;;;;;1.98;0.60;;;18.80;99.90;;;;;;4215640;28;20174;-77
2021/05/18 13:58:17;;;;;;;2.90;0.70;;;19.50;99.90;;;;;;4199091;28;20162;-76
2021/05/18 14:00:18;;;;;;;2.97;0.85;;;19.80;99.90;;;;;;4199056;28;20546;-78
2021/05/18 14:02:19;;;;;;;3.78;0.70;;;19.80;99.90;;;;;;4198818;28;20179;-77
2021/05/18 14:04:20;;;;;;;1.40;0.63;;;19.50;99.90;;;;;;4199922;28;20205;-78
2021/05/18 14:06:21;;;;;;;3.70;0.75;;;19.40;99.90;;;;;;4198726;28;20175;-77
2021/05/18 14:08:31;;;;;;;5.05;0.90;;;19.30;99.90;;;;;;4199824;28;20171;-77
2021/05/18 14:10:32;;;;;;;4.50;0.90;;;19.80;99.90;;;;;;4182157;28;20242;-75
2021/05/18 14:12:32;;;;;;;2.70;0.80;;;19.80;99.90;;;;;;4198803;28;20178;-76
2021/05/18 14:14:33;;;;;;;4.55;0.77;;;19.90;99.90;;;;;;4182265;28;20167;-76
2021/05/18 14:16:34;;;;;;;3.92;1.00;;;19.40;99.90;;;;;;4198814;28;20163;-76
2021/05/18 14:18:35;;;;;;;1.08;0.55;;;18.90;99.90;;;;;;4182144;28;20175;-78
2021/05/18 14:20:36;;;;;;;2.03;0.63;;;18.70;99.90;;;;;;4182088;28;20191;-77
2021/05/18 14:22:37;;;;;;;4.50;0.95;;;18.70;99.90;;;;;;4199927;28;20167;-78
2021/05/18 14:25:23;;;;;;;3.65;1.17;;;19.10;99.90;;;;;;4182092;28;20191;-79
2021/05/18 14:26:58;;;;;;;5.03;0.70;;;19.00;99.90;;;;;;4228115;28;20266;-78
2021/05/18 14:28:59;;;;;;;2.65;0.70;;;18.90;99.90;;;;;;4198642;28;20687;-76
2021/05/18 14:31:00;;;;;;;4.10;0.93;;;18.80;99.90;;;;;;4215061;28;20242;-77
2021/05/18 14:33:00;;;;;;;1.45;0.77;;;19.10;99.90;;;;;;4181659;28;20507;-76
2021/05/18 14:35:01;;;;;;;2.63;0.73;;;19.30;99.90;;;;;;4198391;28;20174;-77
2021/05/18 14:37:02;;;;;;;4.43;0.90;;;18.80;99.90;;;;;;4198402;28;20167;-76
2021/05/18 14:39:06;;;;;;;2.38;0.80;;;18.90;99.90;;;;;;4198504;28;20288;-77
2021/05/18 14:45:17;;;;;;;6.57;0.90;;;19.70;99.90;;;;;;4198383;28;20553;-75
2021/05/18 14:47:23;;;;;;;3.58;0.60;;;19.50;99.90;;;;;;4181662;28;20536;-76
2021/05/18 14:56:12;;;;;;;1.65;0.70;;;20.20;99.90;;;;;;4198101;28;20197;-76
2021/05/18 14:58:16;;;;;;;2.33;0.95;;;19.90;99.90;;;;;;4198045;28;20171;-77
2021/05/18 15:00:18;;;;;;;1.90;0.60;;;19.70;99.90;;;;;;4214634;28;20186;-77
2021/05/18 15:02:18;;;;;;;4.45;0.88;;;19.50;99.90;;;;;;4197992;28;20178;-78
2021/05/18 15:04:19;;;;;;;2.47;0.63;;;19.60;99.90;;;;;;4197910;28;20224;-75
2021/05/18 15:06:20;;;;;;;1.95;0.80;;;19.30;99.90;;;;;;4197973;28;20178;-76
2021/05/18 15:08:20;;;;;;;1.73;0.80;;;19.50;99.90;;;;;;4198105;28;20170;-76
2021/05/18 15:10:21;;;;;;;2.10;0.70;;;19.70;99.90;;;;;;4181348;28;20207;-77
2021/05/18 15:12:22;;;;;;;2.72;0.57;;;19.80;99.90;;;;;;4197943;28;20189;-77
2021/05/18 15:14:23;;;;;;;2.17;0.60;;;20.00;99.90;;;;;;4197566;28;20217;-76
2021/05/18 15:16:24;;;;;;;1.73;0.68;;;20.10;99.90;;;;;;4198045;28;20182;-77
2021/05/18 15:18:25;;;;;;;4.47;0.75;;;20.10;99.90;;;;;;4197628;28;20171;-75
2021/05/18 15:20:26;;;;;;;2.50;0.63;;;19.70;99.90;;;;;;4199218;28;20257;-76
2021/05/18 15:22:29;;;;;;;1.38;0.63;;;19.30;99.90;;;;;;4197875;28;20175;-77
2021/05/18 15:24:30;;;;;;;2.85;0.90;;;19.30;99.90;;;;;;4197821;28;20159;-78
2021/05/18 15:26:30;;;;;;;3.90;0.90;;;19.40;99.90;;;;;;4181317;28;20168;-75
2021/05/18 15:28:31;;;;;;;3.38;0.70;;;19.30;99.90;;;;;;4197638;28;20167;-78
2021/05/18 15:30:32;;;;;;;4.65;0.95;;;19.20;99.90;;;;;;4197281;28;20661;-76
2021/05/18 15:32:33;;;;;;;5.65;1.00;;;18.80;99.90;;;;;;4197488;28;20171;-78
2021/05/18 15:34:35;;;;;;;4.85;0.70;;;18.50;99.90;;;;;;4197339;28;20175;-76
2021/05/18 15:36:39;;;;;;;1.77;0.60;;;18.80;99.90;;;;;;4198438;28;20179;-78
2021/05/18 15:38:39;;;;;;;2.03;0.70;;;18.50;99.90;;;;;;4180697;28;20258;-76
2021/05/18 15:40:40;;;;;;;23.08;1.75;;;18.50;99.90;;;;;;4197085;28;20565;-78
2021/05/18 15:42:41;;;;;;;5.13;0.70;;;18.50;99.90;;;;;;4198343;28;20191;-77
2021/05/18 15:44:42;;;;;;;1.65;0.60;;;18.80;99.90;;;;;;4180182;28;20680;-77
2021/05/18 15:46:44;;;;;;;1.95;0.70;;;18.60;99.90;;;;;;4197303;28;20166;-76
2021/05/18 15:48:45;;;;;;;3.00;0.55;;;18.80;99.90;;;;;;4197239;28;20171;-78
2021/05/18 15:50:45;;;;;;;2.25;0.47;;;18.90;99.90;;;;;;4213901;28;20220;-77
2021/05/18 15:52:46;;;;;;;5.72;0.82;;;19.10;99.90;;;;;;4197044;28;20547;-77
2021/05/18 15:54:47;;;;;;;3.92;0.70;;;19.10;99.90;;;;;;4213834;28;20178;-77
2021/05/18 15:56:48;;;;;;;2.10;0.60;;;19.00;99.90;;;;;;4197240;28;20262;-77
2021/05/18 15:58:48;;;;;;;2.13;0.60;;;18.80;99.90;;;;;;4198300;28;20234;-76
2021/05/18 16:00:51;;;;;;;1.02;0.55;;;18.90;99.90;;;;;;4197104;28;20179;-77
2021/05/18 16:02:52;;;;;;;2.10;0.80;;;19.00;99.90;;;;;;4198285;28;20618;-76
2021/05/18 16:04:52;;;;;;;4.15;0.70;;;19.20;99.90;;;;;;4196995;28;20163;-78
2021/05/18 16:06:54;;;;;;;3.42;0.75;;;19.00;99.90;;;;;;4198258;28;20167;-78
2021/05/18 16:10:58;;;;;;;3.95;0.80;;;19.10;99.90;;;;;;4198265;28;20179;-77
2021/05/18 16:12:59;;;;;;;1.80;0.93;;;19.20;99.90;;;;;;4197135;28;20167;-77
2021/05/18 16:14:59;;;;;;;6.65;1.10;;;19.20;99.90;;;;;;4196964;28;20178;-77
2021/05/18 16:17:00;;;;;;;4.57;1.13;;;19.30;99.90;;;;;;4198024;28;20170;-78
2021/05/18 16:19:01;;;;;;;0.90;0.70;;;19.50;99.90;;;;;;4197938;28;20167;-78
2021/05/18 16:21:03;;;;;;;0.85;0.50;;;19.70;99.90;;;;;;4196734;28;20622;-80
2021/05/18 16:23:05;;;;;;;2.65;0.90;;;19.80;99.90;;;;;;4196773;28;20201;-77
2021/05/18 16:25:06;;;;;;;3.03;0.85;;;19.90;99.90;;;;;;4196588;28;20251;-75
2021/05/18 16:27:11;;;;;;;3.15;0.88;;;19.70;99.90;;;;;;4196798;28;20171;-76
2021/05/18 16:29:12;;;;;;;1.92;0.70;;;19.50;99.90;;;;;;4230130;28;20260;-76
2021/05/18 16:31:13;;;;;;;3.30;0.93;;;19.30;99.90;;;;;;4196760;28;20167;-76
2021/05/18 16:33:14;;;;;;;1.83;0.80;;;19.40;99.90;;;;;;4197980;28;20166;-77
2021/05/18 16:35:15;;;;;;;3.53;0.80;;;19.00;99.90;;;;;;4179954;28;20175;-77
2021/05/18 16:37:16;;;;;;;1.20;0.85;;;19.00;99.90;;;;;;4179937;28;20202;-78
2021/05/18 16:39:19;;;;;;;4.13;1.35;;;18.90;99.90;;;;;;4197799;28;20228;-78
2021/05/18 16:41:21;;;;;;;1.95;0.80;;;19.20;99.90;;;;;;4197624;28;20613;-76
2021/05/18 16:43:22;;;;;;;6.43;0.90;;;19.60;99.90;;;;;;4179812;28;20171;-76
2021/05/18 16:45:24;;;;;;;2.75;0.80;;;19.50;99.90;;;;;;4196420;28;20167;-78
2021/05/18 16:47:24;;;;;;;6.18;0.80;;;19.30;99.90;;;;;;4196364;28;20193;-78
2021/05/18 16:49:25;;;;;;;2.08;0.93;;;19.40;99.90;;;;;;4196315;28;20206;-79
2021/05/18 16:51:26;;;;;;;1.50;0.70;;;19.50;99.90;;;;;;4179767;28;20651;-78
2021/05/18 16:53:27;;;;;;;3.30;0.77;;;19.40;99.90;;;;;;4196287;28;20580;-78
2021/05/18 16:55:28;;;;;;;4.40;0.90;;;19.50;99.90;;;;;;4196291;28;20241;-79
2021/05/18 16:57:29;;;;;;;3.38;0.80;;;19.40;99.90;;;;;;4196576;28;20179;-78
2021/05/18 16:59:29;;;;;;;2.42;0.68;;;19.40;99.90;;;;;;4196571;28;20190;-78
2021/05/18 17:01:30;;;;;;;3.70;0.80;;;19.50;99.90;;;;;;4179697;28;20167;-78
2021/05/18 17:03:31;;;;;;;3.20;0.90;;;19.40;99.90;;;;;;4213016;28;20625;-78
2021/05/18 17:05:32;;;;;;;5.00;0.95;;;19.10;99.90;;;;;;4196393;28;20205;-79
2021/05/18 17:07:32;;;;;;;4.18;0.70;;;19.10;99.90;;;;;;4196290;28;20569;-77
2021/05/18 17:09:33;;;;;;;1.92;0.70;;;19.10;99.90;;;;;;4196138;28;20198;-77
2021/05/18 17:11:35;;;;;;;5.05;0.98;;;18.80;99.90;;;;;;4196421;28;20171;-77
2021/05/18 17:13:36;;;;;;;4.05;0.80;;;18.50;99.90;;;;;;4196500;28;20657;-77
2021/05/18 17:15:37;;;;;;;2.22;0.85;;;18.60;99.90;;;;;;4197505;28;20250;-76
2021/05/18 17:17:38;;;;;;;2.75;0.80;;;18.60;99.90;;;;;;4179694;28;20214;-78
2021/05/18 17:19:39;;;;;;;5.97;0.98;;;18.60;99.90;;;;;;4196374;28;20621;-77
2021/05/18 17:21:40;;;;;;;3.17;0.70;;;18.60;99.90;;;;;;4196502;28;20183;-79
2021/05/18 17:23:41;;;;;;;3.38;0.90;;;18.50;99.90;;;;;;4212906;28;20169;-77
2021/05/18 17:25:42;;;;;;;2.80;0.77;;;18.20;99.90;;;;;;4197504;28;20228;-77
2021/05/18 17:27:43;;;;;;;1.63;0.60;;;18.00;99.90;;;;;;4196283;28;20541;-78
2021/05/18 17:29:44;;;;;;;4.40;0.80;;;17.90;99.90;;;;;;4196175;28;20210;-78
2021/05/18 17:31:45;;;;;;;4.13;0.88;;;17.70;99.90;;;;;;4179519;28;20206;-77
2021/05/18 17:33:45;;;;;;;3.00;1.10;;;17.40;99.90;;;;;;4179509;28;20179;-76
2021/05/18 17:35:47;;;;;;;2.63;1.00;;;17.50;99.90;;;;;;4195931;28;20163;-78
2021/05/18 17:37:48;;;;;;;1.95;1.00;;;17.70;99.90;;;;;;4196263;28;20276;-76
2021/05/18 17:39:48;;;;;;;6.95;1.20;;;17.70;99.90;;;;;;4197475;28;20170;-78
2021/05/18 17:41:50;;;;;;;4.05;1.00;;;17.70;99.90;;;;;;4196093;28;20181;-78
2021/05/18 17:43:55;;;;;;;5.55;0.90;;;17.50;99.90;;;;;;4196251;28;20262;-77
2021/05/18 17:45:59;;;;;;;3.58;1.00;;;17.60;99.90;;;;;;4195881;28;20523;-76
2021/05/18 17:48:00;;;;;;;3.75;0.75;;;17.40;99.90;;;;;;4179193;28;20236;-77
2021/05/18 17:50:01;;;;;;;3.55;0.93;;;17.10;99.90;;;;;;4195825;28;20293;-77
2021/05/18 17:52:03;;;;;;;5.13;1.17;;;17.10;99.90;;;;;;4195767;28;20197;-76
2021/05/18 17:54:04;;;;;;;4.63;1.08;;;17.10;99.90;;;;;;4195804;28;20175;-77
2021/05/18 17:56:04;;;;;;;8.90;1.10;;;17.10;99.90;;;;;;4196074;28;20166;-79
2021/05/18 17:58:05;;;;;;;2.78;1.00;;;17.20;99.90;;;;;;4179258;28;20530;-78
2021/05/18 18:00:08;;;;;;;3.00;1.00;;;17.40;99.90;;;;;;4197095;28;20190;-77
2021/05/18 18:02:16;;;;;;;3.78;1.30;;;17.50;99.90;;;;;;4179871;28;20570;-78
2021/05/18 18:04:16;;;;;;;9.75;1.80;;;17.50;99.90;;;;;;4195570;28;20175;-76
2021/05/18 18:06:17;;;;;;;14.00;1.88;;;17.70;99.90;;;;;;4197078;28;20258;-77
2021/05/18 18:08:18;;;;;;;4.20;2.35;;;17.10;99.90;;;;;;4200075;28;20171;-75
2021/05/18 18:10:19;;;;;;;7.97;2.70;;;16.60;99.90;;;;;;4198607;28;20202;-76
2021/05/18 18:12:20;;;;;;;9.23;2.72;;;16.30;99.90;;;;;;4198859;28;20313;-75
2021/05/18 18:14:21;;;;;;;5.18;2.90;;;16.10;99.90;;;;;;4199963;28;20556;-78
2021/05/18 18:16:22;;;;;;;10.57;3.15;;;15.50;99.90;;;;;;4182085;28;20171;-76
2021/05/18 18:18:23;;;;;;;8.35;2.92;;;15.10;99.90;;;;;;4182150;28;20169;-77
2021/05/18 18:20:23;;;;;;;13.50;3.53;;;14.80;99.90;;;;;;4181926;28;20586;-75
2021/05/18 18:22:27;;;;;;;6.18;3.60;;;14.50;99.90;;;;;;4198629;28;20237;-76
2021/05/18 18:24:28;;;;;;;5.18;3.08;;;14.20;99.90;;;;;;4215467;28;20177;-76
2021/05/18 18:26:28;;;;;;;6.25;3.58;;;13.60;99.90;;;;;;4182028;28;20606;-75
2021/05/18 18:28:29;;;;;;;6.43;3.70;;;12.70;99.90;;;;;;4232252;28;20252;-76
2021/05/18 18:30:30;;;;;;;4.70;3.08;;;12.40;99.90;;;;;;4181945;28;20203;-74
2021/05/18 18:32:33;;;;;;;5.78;2.85;;;12.40;99.90;;;;;;4199704;28;20534;-77
2021/05/18 18:34:34;;;;;;;4.05;2.70;;;12.30;99.90;;;;;;4198466;28;20507;-77
2021/05/18 18:36:35;;;;;;;5.70;2.60;;;12.20;99.90;;;;;;4199750;28;20257;-78
2021/05/18 18:38:36;;;;;;;3.58;1.75;;;12.10;99.90;;;;;;4199738;28;20212;-76
2021/05/18 18:40:39;;;;;;;4.93;1.50;;;12.00;99.90;;;;;;4198438;28;20544;-76
2021/05/18 18:42:40;;;;;;;2.83;1.55;;;11.80;99.90;;;;;;4198394;28;20171;-76
2021/05/18 18:44:42;;;;;;;4.38;1.55;;;11.70;99.90;;;;;;4198262;28;20217;-75
2021/05/18 18:46:43;;;;;;;5.72;2.08;;;11.60;99.90;;;;;;4232037;28;20249;-74
2021/05/18 18:48:43;;;;;;;3.20;2.08;;;11.90;99.90;;;;;;4181822;28;20203;-75
2021/05/18 18:53:02;;;;;;;4.03;2.25;;;13.10;99.90;;;;;;4198185;28;20645;-74
2021/05/18 18:55:09;;;;;;;3.88;2.10;;;13.20;99.90;;;;;;4198210;28;20163;-75
2021/05/18 18:57:11;;;;;;;2.35;1.55;;;13.00;99.90;;;;;;4198448;28;20249;-75
2021/05/18 18:59:12;;;;;;;2.78;1.63;;;13.00;99.90;;;;;;4181767;28;20223;-75
2021/05/18 19:01:14;;;;;;;3.65;1.90;;;13.00;99.90;;;;;;4231520;28;20169;-77
2021/05/18 19:03:17;;;;;;;3.55;2.20;;;13.40;99.90;;;;;;4197994;28;20171;-74
2021/05/18 19:07:29;;;;;;;4.07;1.90;;;13.50;99.90;;;;;;4198165;28;20187;-73
2021/05/18 19:09:42;;;;;;;5.15;1.92;;;13.40;99.90;;;;;;4198027;28;20202;-75
2021/05/18 19:13:46;;;;;;;3.30;2.00;;;13.10;99.90;;;;;;4199477;28;20171;-74